Time;durP1;ratioP1;P1;durP2;ratioP2;P2;SDS_P1;SDS_P2;PMS_P1;PMS_P2;Temp;Humidity;BMP_temperature;BMP_pressure;BME280_temperature;BME280_humidity;BME280_pressure;Samples;Min_cycle;Max_cycle;Signal;HPM_P1;HPM_P2
2021/12/02 00:01:18;;;;;;;9.20;5.00;;;;;;;-2.08;70.02;98368.84;1717744;83;20129;-64
2021/12/02 00:03:46;;;;;;;11.68;5.50;;;;;;;-2.11;69.90;98370.63;1717998;83;21541;-64
2021/12/02 00:06:15;;;;;;;9.60;4.70;;;;;;;-2.05;69.68;98370.24;1717502;83;21087;-64
2021/12/02 00:08:42;;;;;;;9.10;4.87;;;;;;;-2.01;69.48;98376.25;1717760;83;21503;-64
2021/12/02 00:11:09;;;;;;;9.50;4.42;;;;;;;-1.96;69.28;98351.58;1717509;83;21126;-64
2021/12/02 00:16:52;;;;;;;7.28;3.98;;;;;;;-1.85;68.96;98353.48;1717603;83;21569;-64
2021/12/02 00:21:53;;;;;;;7.72;3.75;;;;;;;-1.74;68.70;98346.56;1717756;83;20121;-65
2021/12/02 00:24:22;;;;;;;7.90;4.30;;;;;;;-1.75;68.74;98335.08;1717413;83;21596;-64
2021/12/02 00:26:49;;;;;;;7.30;3.90;;;;;;;-1.70;68.77;98345.87;1717806;83;21011;-65
2021/12/02 00:29:18;;;;;;;8.53;4.50;;;;;;;-1.65;68.83;98343.86;1717821;83;21541;-65
2021/12/02 00:31:47;;;;;;;9.15;5.00;;;;;;;-1.62;68.92;98335.39;1717595;83;20999;-65
2021/12/02 00:34:15;;;;;;;12.37;5.83;;;;;;;-1.58;68.99;98335.23;1717921;83;21063;-65
2021/12/02 00:36:41;;;;;;;8.93;4.87;;;;;;;-1.56;69.13;98335.30;1717968;83;21534;-66
2021/12/02 00:39:17;;;;;;;8.73;4.90;;;;;;;-1.54;69.32;98334.56;1717831;83;21058;-65
2021/12/02 00:41:44;;;;;;;10.98;5.90;;;;;;;-1.50;69.49;98329.58;1717562;83;21038;-64
2021/12/02 00:44:11;;;;;;;;;;;;;;;-1.46;69.71;98305.92;1720347;83;21075;-65
2021/12/02 00:46:37;;;;;;;9.95;6.03;;;;;;;-1.41;69.94;98314.03;1717542;83;20117;-65
2021/12/02 00:49:10;;;;;;;9.30;6.30;;;;;;;-1.43;70.23;98323.63;1717574;83;21027;-65
2021/12/02 00:51:37;;;;;;;9.30;5.97;;;;;;;-1.40;70.51;98307.66;1717620;83;21119;-65
2021/12/02 00:54:06;;;;;;;10.40;6.78;;;;;;;-1.37;70.73;98293.34;1717871;83;21601;-65
2021/12/02 00:56:34;;;;;;;11.83;6.87;;;;;;;-1.33;70.97;98299.03;1717566;83;21038;-65
2021/12/02 00:59:00;;;;;;;11.50;7.42;;;;;;;-1.33;71.30;98294.50;1717610;83;21106;-65
2021/12/02 01:04:22;;;;;;;12.50;8.30;;;;;;;-1.21;71.76;98284.66;1886426;76;22723;-65
2021/12/02 01:06:48;;;;;;;14.00;8.05;;;;;;;-1.24;72.02;98274.42;1856873;77;20985;-65
2021/12/02 01:09:15;;;;;;;11.48;8.08;;;;;;;-1.18;72.16;98275.37;1856477;77;21638;-65
2021/12/02 01:11:42;;;;;;;;;;;;;;;-1.15;72.30;98270.37;1859602;77;21015;-65
2021/12/02 01:14:08;;;;;;;12.18;8.13;;;;;;;-1.12;72.42;98268.56;1856464;77;20107;-65
2021/12/02 01:16:35;;;;;;;13.78;9.03;;;;;;;-1.12;72.59;98263.75;1856990;77;20992;-65
2021/12/02 01:19:03;;;;;;;14.25;8.50;;;;;;;-1.09;72.75;98259.27;1856642;77;21028;-65
2021/12/02 01:21:29;;;;;;;13.13;8.48;;;;;;;-1.07;72.84;98262.54;1856794;77;21040;-65
2021/12/02 01:24:00;;;;;;;14.05;9.20;;;;;;;-1.09;72.99;98256.08;1856795;77;21444;-65
2021/12/02 01:26:28;;;;;;;12.15;8.70;;;;;;;-1.06;73.05;98246.27;1855854;77;21518;-65
2021/12/02 01:28:54;;;;;;;13.60;8.93;;;;;;;-1.03;73.11;98258.36;1856473;77;21524;-66
2021/12/02 01:31:21;;;;;;;13.32;8.65;;;;;;;-0.99;73.12;98263.50;1856625;77;21016;-65
2021/12/02 01:33:48;;;;;;;13.03;8.95;;;;;;;-0.98;73.15;98250.45;1856582;77;20996;-65
2021/12/02 01:36:14;;;;;;;14.87;9.08;;;;;;;-0.93;73.19;98241.73;1856564;77;21072;-65
2021/12/02 01:38:41;;;;;;;13.43;8.75;;;;;;;-0.92;73.19;98246.05;1856873;77;21024;-66
2021/12/02 01:41:07;;;;;;;13.25;8.65;;;;;;;-0.89;73.22;98249.58;1856620;77;21050;-65
2021/12/02 01:43:51;;;;;;;12.63;8.68;;;;;;;-0.87;73.22;98232.78;1856903;77;21016;-65
2021/12/02 01:46:21;;;;;;;15.72;9.95;;;;;;;-0.86;73.18;98235.23;1856638;77;21079;-66
2021/12/02 01:48:57;;;;;;;12.65;8.45;;;;;;;-0.84;73.15;98234.98;1856444;77;21019;-65
2021/12/02 01:51:19;;;;;;;13.48;8.88;;;;;;;-0.86;73.11;98224.55;1855435;77;21091;-65
2021/12/02 01:53:45;;;;;;;12.68;8.60;;;;;;;-0.86;73.07;98227.21;1856480;77;21511;-65
2021/12/02 01:56:14;;;;;;;12.70;8.30;;;;;;;-0.85;73.02;98218.13;1856657;77;21015;-65
2021/12/02 01:58:48;;;;;;;14.20;8.93;;;;;;;-0.84;73.00;98224.29;1856469;77;21023;-65
2021/12/02 02:01:26;;;;;;;11.73;8.10;;;;;;;-0.84;72.96;98225.11;1856907;77;21020;-66
2021/12/02 02:03:53;;;;;;;;;;;;;;;-0.83;72.87;98225.92;1859354;77;20988;-65
2021/12/02 02:06:29;;;;;;;11.85;8.08;;;;;;;-0.83;72.87;98228.08;1856803;77;20092;-65
2021/12/02 02:08:57;;;;;;;11.93;7.83;;;;;;;-0.85;72.87;98216.01;1856715;77;21047;-65
2021/12/02 02:11:27;;;;;;;10.85;8.00;;;;;;;-0.83;72.87;98221.91;1826318;77;21020;-65
2021/12/02 02:13:54;;;;;;;13.55;8.10;;;;;;;-0.81;72.84;98220.62;1856469;77;21037;-66
2021/12/02 02:16:21;;;;;;;11.75;7.60;;;;;;;-0.77;72.75;98211.61;1855886;77;21052;-66
2021/12/02 02:18:49;;;;;;;11.95;8.13;;;;;;;-0.76;72.75;98200.70;1855917;77;21460;-65
2021/12/02 02:21:18;;;;;;;;;;;;;;;-0.75;72.74;98205.01;1858652;77;21036;-66
2021/12/02 02:23:55;;;;;;;11.80;7.80;;;;;;;-0.74;72.69;98201.27;1856094;77;20458;-66
2021/12/02 02:26:22;;;;;;;11.03;8.03;;;;;;;-0.75;72.79;98206.86;1854563;76;21044;-66
2021/12/02 02:28:46;;;;;;;11.73;8.48;;;;;;;-0.72;72.80;98212.55;1855590;77;21062;-65
2021/12/02 02:31:12;;;;;;;11.75;7.65;;;;;;;-0.68;72.77;98210.22;1856064;77;21118;-66
2021/12/02 02:33:39;;;;;;;11.45;8.20;;;;;;;-0.65;72.79;98210.55;1855784;77;21508;-65
2021/12/02 02:36:07;;;;;;;10.78;8.23;;;;;;;-0.63;72.80;98207.11;1856067;77;21017;-66
2021/12/02 02:38:35;;;;;;;11.33;7.83;;;;;;;-0.59;72.75;98195.41;1855950;77;21510;-66
2021/12/02 02:41:03;;;;;;;11.35;8.35;;;;;;;-0.58;72.74;98200.54;1856044;77;21859;-66
2021/12/02 02:43:32;;;;;;;13.88;9.53;;;;;;;-0.56;72.78;98190.92;1855848;77;21005;-66
2021/12/02 02:45:59;;;;;;;12.68;8.60;;;;;;;-0.53;72.76;98193.13;1855854;77;21056;-66
2021/12/02 02:48:26;;;;;;;13.65;8.95;;;;;;;-0.51;72.80;98187.03;1855841;77;21051;-66
2021/12/02 02:50:52;;;;;;;12.82;9.68;;;;;;;-0.49;72.86;98188.92;1856096;77;21015;-66
2021/12/02 02:53:22;;;;;;;10.60;7.17;;;;;;;-0.46;72.85;98186.33;1856127;77;21024;-66
2021/12/02 02:56:14;;;;;;;13.38;9.43;;;;;;;-0.44;72.83;98185.55;1856084;77;21052;-66
2021/12/02 02:58:30;;;;;;;14.58;9.43;;;;;;;-0.41;72.81;98186.40;1847235;77;21024;-66
2021/12/02 03:01:03;;;;;;;11.65;8.78;;;;;;;-0.40;72.83;98175.48;1854152;77;21080;-66
2021/12/02 03:04:05;;;;;;;15.50;10.50;;;;;;;-0.39;72.85;98177.64;1852720;77;21028;-65
2021/12/02 03:06:11;;;;;;;13.93;10.28;;;;;;;-0.35;72.82;98180.91;1834795;77;21615;-67
2021/12/02 03:08:35;;;;;;;13.10;10.00;;;;;;;-0.32;72.79;98187.66;1855878;77;21577;-65
2021/12/02 03:10:57;;;;;;;13.48;9.95;;;;;;;-0.33;72.84;98180.68;1858536;77;21047;-65
2021/12/02 03:13:39;;;;;;;14.70;10.23;;;;;;;-0.33;72.93;98176.15;1859599;77;21059;-65
2021/12/02 03:18:39;;;;;;;13.93;9.88;;;;;;;-0.28;72.96;98164.71;1859849;77;21040;-63
2021/12/02 03:21:20;;;;;;;14.38;10.75;;;;;;;-0.26;72.96;98158.09;1859972;77;21562;-66
2021/12/02 03:23:54;;;;;;;14.78;10.68;;;;;;;-0.23;72.96;98156.80;1858566;77;21063;-65
2021/12/02 03:26:21;;;;;;;14.28;9.38;;;;;;;-0.21;72.97;98152.81;1858431;77;21004;-66
2021/12/02 03:28:49;;;;;;;16.80;10.70;;;;;;;-0.18;72.93;98160.91;1859621;77;21052;-66
2021/12/02 03:31:16;;;;;;;15.80;10.68;;;;;;;-0.15;72.91;98146.53;1859875;77;21947;-65
2021/12/02 03:33:42;;;;;;;14.23;10.25;;;;;;;-0.10;72.83;98132.41;1859866;77;21004;-66
2021/12/02 03:36:10;;;;;;;17.45;12.15;;;;;;;-0.08;72.77;98132.99;1859955;77;21082;-66
2021/12/02 03:38:36;;;;;;;13.28;9.70;;;;;;;-0.06;72.68;98129.53;1859945;77;21688;-66
2021/12/02 03:41:03;;;;;;;14.98;10.90;;;;;;;-0.07;72.75;98119.88;1859835;77;21023;-66
2021/12/02 03:43:43;;;;;;;14.33;10.78;;;;;;;-0.05;72.71;98114.59;1859825;77;21503;-66
2021/12/02 03:46:12;;;;;;;16.42;11.40;;;;;;;-0.02;72.65;98119.98;1859983;77;21094;-66
2021/12/02 03:48:38;;;;;;;15.80;11.43;;;;;;;-0.01;72.63;98109.05;1859923;77;21007;-65
2021/12/02 03:51:06;;;;;;;15.85;11.20;;;;;;;0.03;72.62;98102.68;1859804;77;21007;-66
2021/12/02 03:53:33;;;;;;;13.58;10.08;;;;;;;0.05;72.60;98101.08;1859571;77;21074;-66
2021/12/02 03:56:01;;;;;;;14.38;10.40;;;;;;;0.09;72.48;98094.19;1859748;77;21042;-66
2021/12/02 03:58:29;;;;;;;14.23;9.75;;;;;;;0.11;72.47;98102.25;1859495;77;21024;-66
2021/12/02 04:00:55;;;;;;;13.48;9.78;;;;;;;0.13;72.46;98096.67;1859761;77;21044;-65
2021/12/02 04:03:22;;;;;;;14.70;10.38;;;;;;;0.16;72.34;98088.96;1858942;77;21067;-66
2021/12/02 04:05:48;;;;;;;14.75;9.95;;;;;;;0.20;72.29;98090.63;1856027;77;21502;-66
2021/12/02 04:08:14;;;;;;;13.95;10.03;;;;;;;0.22;72.16;98078.61;1856220;77;21031;-66
2021/12/02 04:10:42;;;;;;;;;;;;;;;0.27;72.07;98080.03;1858462;77;21578;-66
2021/12/02 04:13:23;;;;;;;12.63;9.88;;;;;;;0.30;71.97;98077.39;1856177;77;20126;-66
2021/12/02 04:15:53;;;;;;;14.20;10.43;;;;;;;0.33;71.97;98076.89;1855105;77;21359;-66
2021/12/02 04:18:14;;;;;;;13.72;10.38;;;;;;;0.34;71.91;98067.28;1854130;77;21418;-66
2021/12/02 04:20:40;;;;;;;14.78;10.25;;;;;;;0.39;71.78;98078.05;1856061;77;21039;-67
2021/12/02 04:23:07;;;;;;;15.15;11.28;;;;;;;0.43;71.65;98071.15;1856066;77;21008;-66
2021/12/02 04:25:33;;;;;;;16.42;10.43;;;;;;;0.45;71.56;98073.59;1856036;77;21098;-66
2021/12/02 04:27:59;;;;;;;15.65;11.08;;;;;;;0.50;71.48;98070.97;1856109;77;21022;-67
2021/12/02 04:30:26;;;;;;;15.48;11.12;;;;;;;0.50;71.50;98074.45;1855769;77;21060;-67
2021/12/02 04:32:54;;;;;;;15.93;11.88;;;;;;;0.52;71.54;98082.78;1855995;77;21005;-66
2021/12/02 04:43:04;;;;;;;14.63;10.32;;;;;;;0.59;71.60;98074.04;1819321;79;22537;-66
2021/12/02 04:45:31;;;;;;;18.48;12.30;;;;;;;0.52;71.76;98069.39;1792544;79;21082;-66
2021/12/02 04:47:57;;;;;;;16.10;11.88;;;;;;;0.55;71.80;98071.57;1792702;80;21057;-65
2021/12/02 04:50:25;;;;;;;16.02;11.10;;;;;;;0.59;71.75;98056.63;1792518;80;21538;-66
2021/12/02 04:52:52;;;;;;;16.55;11.75;;;;;;;0.58;71.74;98046.45;1792503;80;21065;-66
2021/12/02 04:55:20;;;;;;;16.55;11.55;;;;;;;0.58;71.71;98045.11;1792709;80;21038;-65
2021/12/02 04:57:48;;;;;;;14.70;11.05;;;;;;;0.59;71.82;98045.92;1792328;80;21077;-66
2021/12/02 05:00:15;;;;;;;14.65;10.32;;;;;;;0.60;71.80;98037.66;1792653;79;21620;-66
2021/12/02 05:02:42;;;;;;;14.18;10.72;;;;;;;0.61;71.77;98045.13;1792394;80;21054;-66
2021/12/02 05:05:09;;;;;;;14.53;11.05;;;;;;;0.59;71.81;98035.21;1792786;79;21050;-66
2021/12/02 05:07:35;;;;;;;;;;;;;;;0.61;71.80;98035.76;1795243;80;21077;-66
2021/12/02 05:10:04;;;;;;;15.95;10.72;;;;;;;0.61;71.81;98035.76;1792929;79;20092;-66
2021/12/02 05:12:30;;;;;;;16.00;10.93;;;;;;;0.56;71.93;98039.20;1792594;80;21005;-66
2021/12/02 05:14:59;;;;;;;14.87;10.58;;;;;;;0.59;71.95;98038.70;1792680;80;21045;-65
2021/12/02 05:17:26;;;;;;;17.82;11.28;;;;;;;0.63;71.92;98042.51;1792522;80;21042;-67
2021/12/02 05:19:52;;;;;;;14.40;9.95;;;;;;;0.63;71.94;98046.52;1793015;79;21072;-66
2021/12/02 05:22:19;;;;;;;15.05;10.63;;;;;;;0.66;71.96;98046.02;1792269;80;21592;-66
2021/12/02 05:24:46;;;;;;;15.05;10.15;;;;;;;0.68;71.93;98036.38;1792793;79;21042;-66
2021/12/02 05:27:14;;;;;;;13.25;10.10;;;;;;;0.70;71.90;98035.63;1792769;80;21015;-66
2021/12/02 05:29:40;;;;;;;13.62;9.93;;;;;;;0.72;71.88;98043.67;1792574;80;21039;-66
2021/12/02 05:32:07;;;;;;;12.43;9.33;;;;;;;0.74;71.86;98042.11;1792823;80;20990;-67
2021/12/02 05:34:34;;;;;;;13.65;10.30;;;;;;;0.78;71.84;98051.27;1792391;80;21057;-66
2021/12/02 05:37:00;;;;;;;12.03;9.13;;;;;;;0.78;71.86;98049.37;1792684;80;21050;-66
2021/12/02 05:39:27;;;;;;;18.40;10.18;;;;;;;0.80;71.87;98057.17;1792546;80;21517;-66
2021/12/02 05:41:53;;;;;;;12.45;9.58;;;;;;;0.82;71.85;98061.73;1790575;80;21038;-67
2021/12/02 05:44:21;;;;;;;17.60;10.90;;;;;;;0.83;71.85;98060.16;1787419;79;21015;-66
2021/12/02 05:46:47;;;;;;;13.95;10.35;;;;;;;0.85;71.87;98054.56;1787175;80;21637;-67
2021/12/02 05:49:13;;;;;;;12.13;8.98;;;;;;;0.88;71.82;98048.70;1787329;79;21033;-66
2021/12/02 05:51:42;;;;;;;13.50;9.93;;;;;;;0.89;71.90;98063.17;1787565;80;21042;-66
2021/12/02 05:54:09;;;;;;;11.65;8.13;;;;;;;0.91;71.90;98056.23;1786567;80;21544;-66
2021/12/02 05:56:35;;;;;;;12.15;8.98;;;;;;;0.93;71.89;98062.14;1786762;80;21094;-66
2021/12/02 05:59:02;;;;;;;;;;;;;;;0.97;71.87;98063.27;1789149;80;21527;-66
2021/12/02 06:01:28;;;;;;;13.93;8.85;;;;;;;0.99;71.85;98060.60;1786499;80;20129;-66
2021/12/02 06:03:54;;;;;;;14.75;9.50;;;;;;;0.98;71.90;98060.34;1787076;80;20999;-67
2021/12/02 06:06:23;;;;;;;13.88;8.83;;;;;;;0.98;71.94;98054.17;1786803;80;21078;-66
2021/12/02 06:08:49;;;;;;;13.83;8.90;;;;;;;1.02;71.91;98056.63;1786763;80;21062;-66
2021/12/02 06:11:17;;;;;;;12.23;8.83;;;;;;;1.04;71.92;98058.52;1786491;79;21807;-66
2021/12/02 06:13:46;;;;;;;12.35;8.83;;;;;;;1.07;71.86;98052.66;1787041;80;21067;-67
2021/12/02 06:16:15;;;;;;;13.38;8.65;;;;;;;1.10;71.87;98055.38;1786451;79;21565;-67
2021/12/02 06:18:41;;;;;;;13.28;8.95;;;;;;;1.12;71.87;98055.41;1786682;80;21054;-66
2021/12/02 06:21:08;;;;;;;13.85;9.38;;;;;;;1.17;71.86;98051.97;1786626;80;21074;-66
2021/12/02 06:23:36;;;;;;;13.05;8.38;;;;;;;1.20;71.84;98051.47;1786962;80;21576;-66
2021/12/02 06:26:02;;;;;;;11.50;8.05;;;;;;;1.25;71.78;98050.16;1786795;80;21596;-66
2021/12/02 06:28:28;;;;;;;13.48;8.85;;;;;;;1.29;71.77;98052.09;1786614;80;21078;-66
2021/12/02 06:30:56;;;;;;;12.75;8.18;;;;;;;1.31;71.73;98048.62;1786422;79;21570;-66
2021/12/02 06:33:22;;;;;;;;;;;;;;;1.34;71.70;98049.47;1789070;80;21042;-66
2021/12/02 06:35:48;;;;;;;12.05;8.18;;;;;;;1.35;71.70;98049.73;1786737;79;20123;-66
2021/12/02 06:38:14;;;;;;;10.40;7.78;;;;;;;1.35;71.76;98052.41;1786697;80;21494;-66
2021/12/02 06:40:45;;;;;;;10.58;7.55;;;;;;;1.38;71.80;98048.44;1786686;80;21045;-66
2021/12/02 06:47:38;;;;;;;11.78;7.97;;;;;;;1.53;71.67;98061.97;1801543;79;22624;-65
2021/12/02 06:50:05;;;;;;;11.40;7.70;;;;;;;1.49;71.75;98063.01;1758626;81;21082;-66
2021/12/02 06:52:32;;;;;;;10.98;7.58;;;;;;;1.53;71.74;98057.95;1752899;82;21938;-66
2021/12/02 06:54:58;;;;;;;10.55;7.55;;;;;;;1.58;71.72;98051.30;1753002;82;21122;-66
2021/12/02 06:57:25;;;;;;;9.28;7.08;;;;;;;1.58;71.68;98044.59;1753151;82;21534;-66
2021/12/02 06:59:51;;;;;;;12.80;8.20;;;;;;;1.66;71.59;98044.66;1753399;82;20995;-66
2021/12/02 07:02:22;;;;;;;12.68;8.93;;;;;;;1.70;71.54;98047.13;1753366;82;21008;-66
2021/12/02 07:04:46;;;;;;;11.08;7.87;;;;;;;1.75;71.41;98039.09;1751805;82;21051;-66
2021/12/02 07:07:12;;;;;;;12.07;7.95;;;;;;;1.78;71.33;98039.92;1753347;82;21015;-65
2021/12/02 07:09:39;;;;;;;11.08;8.10;;;;;;;1.80;71.25;98044.52;1753150;82;20979;-66
2021/12/02 07:12:06;;;;;;;10.70;7.97;;;;;;;1.83;71.25;98038.11;1753470;82;21394;-65
2021/12/02 07:14:34;;;;;;;14.35;8.78;;;;;;;1.86;71.24;98036.77;1753051;82;20968;-65
2021/12/02 07:17:00;;;;;;;;;;;;;;;1.90;71.20;98035.20;1755937;82;20999;-66
2021/12/02 07:19:28;;;;;;;11.45;7.58;;;;;;;1.90;71.24;98025.81;1753087;81;20452;-65
2021/12/02 07:21:54;;;;;;;12.53;8.63;;;;;;;1.92;71.28;98028.50;1753256;82;20999;-65
2021/12/02 07:24:23;;;;;;;14.73;8.05;;;;;;;1.96;71.28;98029.61;1753011;82;21557;-65
2021/12/02 07:26:49;;;;;;;12.73;7.92;;;;;;;2.03;71.13;98032.59;1752938;82;21059;-65
2021/12/02 07:29:16;;;;;;;12.68;8.78;;;;;;;2.07;71.14;98036.38;1748417;81;21010;-66
2021/12/02 07:31:43;;;;;;;12.80;8.50;;;;;;;2.16;70.93;98042.34;1752833;82;21110;-65
2021/12/02 07:34:10;;;;;;;10.03;7.53;;;;;;;2.18;70.88;98044.78;1753232;82;21493;-65
2021/12/02 07:36:36;;;;;;;11.78;8.23;;;;;;;2.19;70.78;98044.54;1752875;82;21071;-66
2021/12/02 07:39:06;;;;;;;9.98;7.35;;;;;;;2.18;70.81;98041.58;1753420;82;20994;-65
2021/12/02 07:41:33;;;;;;;12.65;9.38;;;;;;;2.26;70.71;98045.66;1752898;82;21094;-65
2021/12/02 07:43:59;;;;;;;;;;;;;;;2.29;70.62;98047.28;1755812;82;21506;-65
2021/12/02 07:46:26;;;;;;;10.00;7.47;;;;;;;2.29;70.67;98052.66;1753205;82;20130;-65
2021/12/02 07:48:53;;;;;;;12.13;9.10;;;;;;;2.23;70.91;98056.35;1753929;82;21050;-65
2021/12/02 07:51:20;;;;;;;12.28;8.93;;;;;;;2.31;71.00;98053.72;1753702;82;21042;-65
2021/12/02 07:53:48;;;;;;;11.55;8.33;;;;;;;2.37;70.96;98054.83;1754045;82;21478;-65
2021/12/02 07:56:17;;;;;;;11.30;8.18;;;;;;;2.45;70.87;98055.69;1753625;82;21664;-65
2021/12/02 07:58:45;;;;;;;11.53;7.78;;;;;;;2.57;70.73;98061.40;1753310;82;20980;-65
2021/12/02 08:01:12;;;;;;;12.55;8.43;;;;;;;2.68;70.69;98061.73;1753174;82;21067;-64
2021/12/02 08:03:43;;;;;;;10.55;7.60;;;;;;;2.76;70.71;98061.23;1753660;82;20979;-65
2021/12/02 08:06:07;;;;;;;10.38;7.60;;;;;;;2.84;70.65;98051.31;1752955;82;21094;-65
2021/12/02 08:08:33;;;;;;;11.33;8.00;;;;;;;2.91;70.62;98056.72;1725810;82;21450;-65
2021/12/02 08:10:59;;;;;;;11.38;7.90;;;;;;;2.99;70.31;98050.84;1753606;82;21050;-65
2021/12/02 08:13:30;;;;;;;12.00;8.35;;;;;;;3.12;70.08;98057.59;1753483;82;21505;-66
2021/12/02 08:15:54;;;;;;;11.75;7.83;;;;;;;3.20;69.84;98057.63;1752967;82;21051;-65
2021/12/02 08:18:20;;;;;;;12.25;8.23;;;;;;;3.23;69.88;98060.59;1753397;82;20979;-65
2021/12/02 08:20:47;;;;;;;12.98;8.58;;;;;;;3.28;69.77;98058.46;1753537;82;21066;-65
2021/12/02 08:23:13;;;;;;;11.63;7.65;;;;;;;3.32;69.71;98070.31;1753628;82;21010;-65
2021/12/02 08:25:39;;;;;;;9.65;7.37;;;;;;;3.40;69.61;98073.83;1742810;82;21051;-65
2021/12/02 08:28:06;;;;;;;;;;;;;;;3.51;69.36;98073.56;1755605;82;21067;-65
2021/12/02 08:30:34;;;;;;;13.08;8.43;;;;;;;3.54;68.80;98076.28;1753331;82;20157;-65
2021/12/02 08:33:01;;;;;;;10.45;7.97;;;;;;;3.44;69.02;98074.89;1753255;82;21019;-65
2021/12/02 08:35:28;;;;;;;11.97;8.18;;;;;;;3.43;69.13;98082.71;1753360;82;21052;-65
2021/12/02 08:38:00;;;;;;;13.15;8.38;;;;;;;3.44;69.16;98068.98;1752932;82;21061;-65
2021/12/02 08:40:35;;;;;;;13.40;8.15;;;;;;;3.43;69.04;98060.66;1752570;82;21062;-65
2021/12/02 08:43:06;;;;;;;11.68;8.38;;;;;;;3.46;68.91;98069.54;1753222;82;21031;-65
2021/12/02 08:45:34;;;;;;;12.07;8.15;;;;;;;3.50;68.76;98073.84;1753237;82;21102;-64
2021/12/02 08:48:00;;;;;;;13.75;8.98;;;;;;;3.48;68.88;98074.10;1739174;81;21030;-64
2021/12/02 08:50:27;;;;;;;11.55;8.55;;;;;;;3.51;68.96;98074.09;1739128;82;21036;-64
2021/12/02 08:52:54;;;;;;;12.45;8.03;;;;;;;3.47;68.95;98070.35;1739570;82;21047;-64
2021/12/02 08:55:22;;;;;;;15.50;8.55;;;;;;;3.46;69.11;98062.81;1739095;82;21991;-64
2021/12/02 08:57:49;;;;;;;11.35;7.95;;;;;;;3.50;69.13;98050.45;1739142;82;21530;-65
2021/12/02 09:00:21;;;;;;;9.95;7.50;;;;;;;3.59;68.96;98059.31;1739208;82;21059;-64
2021/12/02 09:02:47;;;;;;;12.40;7.95;;;;;;;3.62;68.90;98056.09;1739106;82;21047;-65
2021/12/02 09:05:14;;;;;;;9.78;7.47;;;;;;;3.58;68.86;98061.76;1739246;82;21040;-65
2021/12/02 09:07:41;;;;;;;11.65;7.08;;;;;;;3.55;69.06;98063.61;1739205;82;21067;-65
2021/12/02 09:10:08;;;;;;;;;;;;;;;3.55;69.23;98056.35;1741937;82;21016;-65
2021/12/02 09:12:34;;;;;;;12.63;7.43;;;;;;;3.55;69.21;98056.88;1739584;82;20107;-65
2021/12/02 09:15:01;;;;;;;10.82;7.37;;;;;;;3.58;69.30;98049.66;1739477;82;21075;-65
2021/12/02 09:17:28;;;;;;;11.45;6.97;;;;;;;3.61;69.31;98049.11;1739279;82;21016;-65
2021/12/02 09:19:54;;;;;;;10.25;7.60;;;;;;;3.60;69.39;98047.48;1739309;82;21624;-65
2021/12/02 09:22:21;;;;;;;9.25;6.72;;;;;;;3.60;69.55;98047.48;1739469;82;21012;-64
2021/12/02 09:24:47;;;;;;;9.20;6.90;;;;;;;3.62;69.75;98048.83;1739183;82;21040;-65
2021/12/02 09:27:14;;;;;;;9.25;6.65;;;;;;;3.63;69.85;98041.56;1739049;82;21051;-65
2021/12/02 09:29:40;;;;;;;10.80;7.20;;;;;;;3.71;69.82;98045.08;1739158;82;21174;-65
2021/12/02 09:32:07;;;;;;;11.48;7.35;;;;;;;3.79;69.67;98045.34;1739099;82;21028;-65
2021/12/02 09:34:34;;;;;;;10.63;7.58;;;;;;;3.84;69.64;98043.19;1739138;82;21538;-65
2021/12/02 09:37:00;;;;;;;10.72;7.35;;;;;;;3.87;69.65;98036.73;1739274;82;21004;-65
2021/12/02 09:39:30;;;;;;;10.10;7.08;;;;;;;3.86;69.59;98041.84;1739090;82;21566;-65
2021/12/02 09:41:54;;;;;;;11.60;7.95;;;;;;;3.86;69.63;98037.02;1738797;82;21063;-65
2021/12/02 09:44:21;;;;;;;11.33;6.87;;;;;;;3.87;69.70;98031.34;1739105;82;21079;-65
2021/12/02 09:46:48;;;;;;;11.12;6.78;;;;;;;3.93;69.56;98033.52;1744026;81;21502;-65
2021/12/02 09:49:15;;;;;;;11.18;6.87;;;;;;;4.00;69.45;98035.40;1753719;82;21069;-66
2021/12/02 09:54:32;;;;;;;12.93;7.58;;;;;;;4.06;69.51;98032.16;1752967;82;21498;-65
2021/12/02 09:56:56;;;;;;;9.48;7.10;;;;;;;4.03;69.42;98026.78;1751730;82;21066;-65
2021/12/02 09:59:26;;;;;;;13.10;10.40;;;;;;;3.99;69.49;98023.01;1753228;81;20984;-65
2021/12/02 10:01:58;;;;;;;11.65;7.85;;;;;;;4.01;69.50;98036.45;1753082;82;21561;-66
2021/12/02 10:04:24;;;;;;;9.38;7.45;;;;;;;4.08;69.37;98018.67;1752552;82;21054;-66
2021/12/02 10:07:16;;;;;;;9.78;7.22;;;;;;;4.08;69.38;98028.09;1753016;82;21098;-65
2021/12/02 10:09:49;;;;;;;12.03;8.30;;;;;;;4.06;69.58;98016.00;1752467;82;21534;-65
2021/12/02 10:12:16;;;;;;;12.55;8.15;;;;;;;4.04;69.73;98010.87;1725608;82;21050;-65
2021/12/02 10:14:42;;;;;;;11.22;7.65;;;;;;;4.09;69.79;98008.19;1752274;82;21151;-65
2021/12/02 10:17:34;;;;;;;10.40;7.40;;;;;;;4.20;69.79;98013.83;1753267;82;21031;-66
2021/12/02 10:20:16;;;;;;;11.00;7.17;;;;;;;4.27;69.67;98008.96;1751222;82;21101;-65
2021/12/02 10:22:41;;;;;;;11.00;7.87;;;;;;;4.29;69.73;98008.13;1752558;82;21025;-65
2021/12/02 10:25:08;;;;;;;10.70;7.58;;;;;;;4.31;69.84;98006.53;1753248;82;21027;-64
2021/12/02 10:27:35;;;;;;;13.22;8.73;;;;;;;4.40;69.79;98008.38;1752988;82;21019;-65
2021/12/02 10:30:22;;;;;;;10.88;8.43;;;;;;;4.49;69.59;98005.41;1753126;82;21098;-66
2021/12/02 10:32:51;;;;;;;11.35;7.80;;;;;;;4.62;69.42;98012.09;1753180;82;21038;-64
2021/12/02 10:35:18;;;;;;;12.58;7.53;;;;;;;4.70;69.37;98013.41;1753330;82;20987;-65
2021/12/02 10:37:44;;;;;;;13.15;8.85;;;;;;;4.75;69.50;98004.75;1752940;82;21067;-65
2021/12/02 10:40:17;;;;;;;12.68;8.23;;;;;;;4.80;69.42;98004.75;1753022;82;21094;-65
2021/12/02 10:42:45;;;;;;;11.60;8.58;;;;;;;4.84;69.24;98005.00;1753142;82;21082;-65
2021/12/02 10:45:29;;;;;;;12.95;8.30;;;;;;;4.84;69.07;98005.81;1753284;82;21074;-65
2021/12/02 10:47:56;;;;;;;13.40;7.80;;;;;;;4.92;68.99;98004.44;1743005;81;21071;-65
2021/12/02 10:50:24;;;;;;;11.50;7.50;;;;;;;4.97;68.75;98001.16;1739033;82;21566;-66
2021/12/02 10:52:51;;;;;;;15.08;8.43;;;;;;;4.98;68.72;97989.84;1738985;82;21078;-65
2021/12/02 10:55:22;;;;;;;12.73;7.70;;;;;;;4.99;68.77;97992.80;1739032;82;21545;-65
2021/12/02 10:57:52;;;;;;;12.43;7.17;;;;;;;5.00;68.73;97987.12;1739046;82;21078;-65
2021/12/02 11:00:22;;;;;;;10.45;7.28;;;;;;;4.98;68.64;97981.75;1739206;82;21612;-65
2021/12/02 11:02:53;;;;;;;10.05;7.47;;;;;;;5.01;68.44;97977.14;1739019;82;21071;-65
2021/12/02 11:05:29;;;;;;;10.60;7.37;;;;;;;5.05;68.37;97976.85;1738797;82;21063;-65
2021/12/02 11:08:08;;;;;;;11.60;8.63;;;;;;;5.07;68.29;97975.20;1738981;82;21573;-65
2021/12/02 11:10:43;;;;;;;12.45;8.05;;;;;;;5.01;68.39;97975.80;1739027;82;21052;-64
2021/12/02 11:13:17;;;;;;;10.90;7.22;;;;;;;4.97;68.56;97973.38;1739319;82;21044;-65
2021/12/02 11:15:45;;;;;;;11.35;7.95;;;;;;;4.96;68.73;97968.53;1718433;82;21036;-65
2021/12/02 11:18:12;;;;;;;13.88;7.80;;;;;;;4.96;68.84;97960.44;1743208;81;21035;-65
2021/12/02 11:20:50;;;;;;;10.18;6.90;;;;;;;5.03;68.76;97971.48;1738997;82;21036;-65
2021/12/02 11:23:32;;;;;;;9.60;6.60;;;;;;;5.09;68.59;97973.87;1739125;82;21613;-65
2021/12/02 11:26:11;;;;;;;13.98;8.13;;;;;;;5.14;68.55;97963.03;1735750;82;21080;-65
2021/12/02 11:28:40;;;;;;;12.93;7.95;;;;;;;5.10;68.48;97959.27;1738855;82;21119;-65
2021/12/02 11:31:16;;;;;;;11.53;7.60;;;;;;;5.10;68.77;97959.27;1739170;82;21091;-65
2021/12/02 11:33:43;;;;;;;14.87;7.87;;;;;;;5.13;69.01;97968.72;1738727;82;21572;-65
2021/12/02 11:36:23;;;;;;;10.78;7.35;;;;;;;5.17;68.95;97960.34;1739194;82;21075;-65
2021/12/02 11:38:56;;;;;;;9.65;7.05;;;;;;;5.20;68.67;97952.49;1739151;82;21064;-65
2021/12/02 11:41:22;;;;;;;12.53;7.60;;;;;;;5.24;68.42;97950.84;1739371;82;21062;-65
2021/12/02 11:43:49;;;;;;;12.68;8.05;;;;;;;5.23;68.30;97945.19;1739403;82;21042;-65
2021/12/02 11:46:17;;;;;;;12.65;8.40;;;;;;;5.17;68.49;97951.70;1738950;82;21055;-65
2021/12/02 11:48:44;;;;;;;12.30;8.10;;;;;;;5.16;68.68;97956.83;1751745;81;21070;-65
2021/12/02 11:51:13;;;;;;;12.33;8.10;;;;;;;5.15;68.56;97959.25;1753495;82;21058;-65
2021/12/02 11:53:40;;;;;;;15.20;8.35;;;;;;;5.16;68.57;97954.12;1753338;82;21038;-66
2021/12/02 11:56:11;;;;;;;11.75;7.83;;;;;;;5.18;68.45;97956.53;1753437;82;21592;-66
2021/12/02 11:58:38;;;;;;;11.43;8.00;;;;;;;5.17;68.44;97954.41;1753235;82;21101;-66
2021/12/02 12:01:04;;;;;;;12.07;7.92;;;;;;;5.11;68.47;97954.69;1753385;82;21019;-65
2021/12/02 12:03:43;;;;;;;10.95;7.58;;;;;;;5.07;68.61;97945.54;1753065;82;21109;-65
2021/12/02 12:06:24;;;;;;;12.05;7.35;;;;;;;5.09;68.76;97945.55;1753125;82;21063;-65